Terminal Aerodrome Forecast
Issued by NWS Sioux Falls, SD

Home | Current Version | Previous Version | Text Only | Print | Product List | Glossary On
Versions: 1 2 3 4 5 6 7 8 9 10 11 12 13 14 15 16 17 18 19 20 21 22 23 24 25 26 27 28 29
000
FTUS43 KFSD 171130
TAFSUX
TAF
KSUX 171130Z 1712/1812 12004KT P6SM SCT040
     FM171600 13006KT P6SM SCT040
     FM171900 12006KT P6SM BKN040
     FM180100 11005KT P6SM SCT050
     FM180900 11004KT 5SM BR BKN008=

USA.gov is the U.S. government's official web portal to all federal, state and local government web resources and services.